Terminal Aerodrome Forecast
Issued by NWS

Home | Current Version | Previous Version | Text Only | Print | Product List | Glossary On
Versions: 1 2 3 4 5 6 7 8 9 10 11 12 13 14 15 16 17 18 19 20 21 22 23 24 25
000
FTUS42 KCAE 251100
TAFCUB
TAF
KCUB 251137Z 2512/2612 27010G16KT P6SM BKN120 OVC250
     FM251500 28010G18KT P6SM FEW200
     FM252100 28008KT P6SM SKC
     FM252300 00000KT P6SM SKC=

USA.gov is the U.S. government's official web portal to all federal, state and local government web resources and services.